Time;durP1;ratioP1;P1;durP2;ratioP2;P2;SDS_P1;SDS_P2;PMS_P1;PMS_P2;Temp;Humidity;BMP_temperature;BMP_pressure;BME280_temperature;BME280_humidity;BME280_pressure;Samples;Min_cycle;Max_cycle;Signal;HPM_P1;HPM_P2
2023/08/13 00:02:18;;;;;;;6.20;2.35;;;;;;;19.49;57.49;95220.88;5133044;27;20046;-76
2023/08/13 00:04:44;;;;;;;2.88;2.40;;;;;;;19.53;58.14;95216.94;5132449;27;20412;-77
2023/08/13 00:07:10;;;;;;;2.80;2.30;;;;;;;19.59;56.99;95208.34;5132757;27;20031;-76
2023/08/13 00:09:35;;;;;;;3.10;2.70;;;;;;;19.44;57.45;95215.31;5132695;27;20031;-75
2023/08/13 00:12:01;;;;;;;2.70;2.28;;;;;;;19.25;56.07;95229.72;5115374;27;20030;-76
2023/08/13 00:14:26;;;;;;;2.42;2.20;;;;;;;19.33;57.76;95216.50;5115470;27;20447;-77
2023/08/13 00:16:51;;;;;;;2.92;2.30;;;;;;;19.40;57.60;95219.28;5132550;27;20031;-76
2023/08/13 00:19:17;;;;;;;4.43;2.45;;;;;;;19.30;56.66;95213.41;5134096;27;20034;-77
2023/08/13 00:21:42;;;;;;;3.15;2.45;;;;;;;19.14;58.37;95223.03;5132566;27;20496;-76
2023/08/13 00:24:08;;;;;;;3.03;2.67;;;;;;;19.34;58.39;95225.25;5133382;27;20038;-77
2023/08/13 00:26:34;;;;;;;2.83;2.33;;;;;;;19.22;55.43;95224.78;5132434;27;20022;-76
2023/08/13 00:28:59;;;;;;;2.88;2.40;;;;;;;19.19;57.56;95217.22;5132395;27;20038;-76
2023/08/13 00:31:24;;;;;;;3.20;2.30;;;;;;;18.92;57.69;95221.13;5132152;27;20027;-76
2023/08/13 00:33:50;;;;;;;3.20;2.55;;;;;;;19.06;58.33;95217.78;5133788;27;20019;-77
2023/08/13 00:36:15;;;;;;;3.35;2.42;;;;;;;18.37;58.93;95213.91;5132185;27;20542;-76
2023/08/13 00:38:41;;;;;;;4.22;2.53;;;;;;;18.61;57.98;95224.44;5132509;27;20087;-77
2023/08/13 00:41:07;;;;;;;3.35;2.60;;;;;;;18.71;56.68;95216.34;5114806;27;20027;-76
2023/08/13 00:43:32;;;;;;;3.40;2.63;;;;;;;18.56;56.68;95223.28;5115089;27;20039;-76
2023/08/13 00:45:58;;;;;;;4.32;2.65;;;;;;;18.61;58.36;95220.94;5114642;27;20027;-76
2023/08/13 00:48:23;;;;;;;2.70;2.40;;;;;;;18.46;58.05;95226.06;5131382;27;20031;-76
2023/08/13 00:50:48;;;;;;;4.53;2.70;;;;;;;18.49;57.64;95208.13;5131890;27;20034;-77
2023/08/13 00:53:14;;;;;;;4.13;2.47;;;;;;;18.14;58.63;95187.47;5114717;27;20439;-76
2023/08/13 00:55:40;;;;;;;3.17;2.60;;;;;;;18.31;59.59;95226.75;5114679;27;20030;-75
2023/08/13 00:58:05;;;;;;;4.03;2.92;;;;;;;18.24;59.79;95196.81;5131650;27;20511;-76
2023/08/13 01:00:31;;;;;;;5.47;2.70;;;;;;;18.28;60.19;95221.81;5114489;27;20034;-75
2023/08/13 01:02:56;;;;;;;3.00;2.65;;;;;;;18.27;60.42;95217.53;5114598;27;20092;-76
2023/08/13 01:05:34;;;;;;;3.92;2.63;;;;;;;18.21;60.53;95225.25;5114529;27;20028;-75
2023/08/13 01:08:13;;;;;;;5.75;2.80;;;;;;;18.23;60.37;95215.41;5131744;27;20035;-76
2023/08/13 01:10:38;;;;;;;5.13;2.88;;;;;;;18.15;60.05;95205.69;5116053;27;20038;-76
2023/08/13 01:13:38;;;;;;;3.40;2.80;;;;;;;17.61;62.28;95215.78;5114025;27;20035;-75
2023/08/13 01:16:04;;;;;;;3.58;2.85;;;;;;;18.09;59.80;95216.88;5131496;27;20049;-76
2023/08/13 01:18:29;;;;;;;4.32;2.35;;;;;;;17.60;61.81;95224.63;5131298;27;20031;-76
2023/08/13 01:20:55;;;;;;;3.38;2.58;;;;;;;17.63;61.38;95217.28;5114321;27;20481;-76
2023/08/13 01:23:20;;;;;;;3.03;2.65;;;;;;;17.72;60.85;95214.63;5114317;27;20039;-76
2023/08/13 01:25:52;;;;;;;3.33;2.92;;;;;;;17.51;61.52;95209.84;5131414;27;20027;-76
2023/08/13 01:28:27;;;;;;;3.42;2.55;;;;;;;17.60;61.91;95216.75;5114294;27;20031;-76
2023/08/13 01:31:04;;;;;;;3.95;2.70;;;;;;;17.45;62.53;95218.38;5131281;27;20031;-76
2023/08/13 01:33:31;;;;;;;3.38;3.00;;;;;;;17.43;62.44;95211.44;5131359;27;20068;-76
2023/08/13 01:35:58;;;;;;;3.65;2.97;;;;;;;17.29;63.32;95227.00;5114024;27;20062;-75
2023/08/13 01:38:24;;;;;;;3.35;2.90;;;;;;;17.49;62.37;95222.31;5114154;28;20153;-76
2023/08/13 01:40:50;;;;;;;2.90;2.60;;;;;;;17.24;63.05;95227.47;5132006;27;20480;-76
2023/08/13 01:43:15;;;;;;;3.22;2.72;;;;;;;17.37;63.14;95229.66;5130918;27;20117;-75
2023/08/13 01:45:41;;;;;;;3.72;2.65;;;;;;;17.32;63.25;95227.50;5130857;27;20106;-75
2023/08/13 01:48:07;;;;;;;4.78;2.78;;;;;;;17.26;63.12;95224.69;5113836;28;20112;-76
2023/08/13 01:50:32;;;;;;;4.72;2.70;;;;;;;17.13;63.10;95209.38;5130805;27;20504;-75
2023/08/13 01:52:57;;;;;;;3.38;2.40;;;;;;;17.18;63.11;95217.59;5113652;28;20505;-76
2023/08/13 01:55:23;;;;;;;4.07;2.72;;;;;;;17.09;63.41;95208.06;5130833;27;20412;-76
2023/08/13 01:57:48;;;;;;;5.90;2.78;;;;;;;16.98;63.39;95207.34;5131034;28;20112;-76
2023/08/13 02:00:14;;;;;;;3.83;2.70;;;;;;;16.83;63.48;95211.53;5133843;27;20027;-76
2023/08/13 02:02:39;;;;;;;3.45;2.78;;;;;;;16.83;63.51;95214.16;5134984;27;20031;-76
2023/08/13 02:05:05;;;;;;;2.95;2.65;;;;;;;16.75;63.27;95217.53;5135090;27;20382;-76
2023/08/13 02:07:30;;;;;;;3.17;2.88;;;;;;;16.73;63.96;95222.09;5136336;27;20499;-76
2023/08/13 02:09:56;;;;;;;3.30;2.70;;;;;;;16.65;64.08;95214.16;5135910;27;20473;-75
2023/08/13 02:12:21;;;;;;;3.00;2.63;;;;;;;16.70;64.14;95216.34;5134866;27;20031;-76
2023/08/13 02:14:47;;;;;;;3.00;2.70;;;;;;;16.67;63.91;95214.84;5135210;27;20022;-76
2023/08/13 02:17:15;;;;;;;3.88;2.88;;;;;;;16.67;64.03;95216.66;5134668;27;20046;-76
2023/08/13 02:19:40;;;;;;;3.83;2.67;;;;;;;16.62;64.35;95211.88;5135883;27;20556;-76
2023/08/13 02:22:06;;;;;;;3.45;2.65;;;;;;;16.63;63.89;95207.44;5134676;27;20034;-75
2023/08/13 02:24:32;;;;;;;6.20;2.92;;;;;;;16.73;64.04;95211.59;5100470;27;20027;-74
2023/08/13 02:26:57;;;;;;;3.03;2.60;;;;;;;16.86;63.83;95213.84;5134461;27;20454;-75
2023/08/13 02:29:22;;;;;;;3.25;2.45;;;;;;;16.79;63.99;95217.25;5117373;27;20385;-76
2023/08/13 02:31:48;;;;;;;2.97;2.40;;;;;;;16.86;63.77;95224.34;5135922;27;20035;-75
2023/08/13 02:34:13;;;;;;;3.97;2.80;;;;;;;16.75;64.16;95214.09;5134353;27;20072;-76
2023/08/13 02:36:39;;;;;;;4.53;2.63;;;;;;;16.73;64.70;95218.66;5134382;27;20087;-76
2023/08/13 02:39:04;;;;;;;3.83;2.60;;;;;;;16.72;64.42;95219.66;5135574;27;20084;-76
2023/08/13 02:41:29;;;;;;;3.30;2.80;;;;;;;16.71;63.57;95218.78;5134477;27;20019;-75
2023/08/13 02:43:55;;;;;;;5.45;2.60;;;;;;;16.77;62.82;95221.81;5134304;27;20039;-75
2023/08/13 02:46:22;;;;;;;5.40;2.80;;;;;;;16.79;62.82;95223.31;5116876;27;20020;-74
2023/08/13 02:48:47;;;;;;;3.00;2.60;;;;;;;16.54;62.28;95177.72;5134112;27;20107;-75
2023/08/13 02:51:13;;;;;;;4.05;2.70;;;;;;;16.83;62.93;95211.53;5134099;27;20472;-75
2023/08/13 02:53:39;;;;;;;4.95;3.03;;;;;;;16.83;62.68;95219.41;5117187;27;20051;-76
2023/08/13 02:56:05;;;;;;;3.85;2.47;;;;;;;16.92;62.17;95228.97;5116771;27;20072;-76
2023/08/13 02:58:30;;;;;;;4.55;2.88;;;;;;;17.01;62.44;95226.38;5133980;27;20031;-75
2023/08/13 03:00:55;;;;;;;3.50;3.10;;;;;;;16.85;62.70;95222.69;5135213;27;20498;-76
2023/08/13 03:03:21;;;;;;;3.08;2.60;;;;;;;16.94;61.93;95215.69;5116687;27;20064;-75
2023/08/13 03:05:46;;;;;;;3.75;2.50;;;;;;;16.92;61.72;95228.97;5133693;27;20019;-75
2023/08/13 03:08:12;;;;;;;3.72;2.63;;;;;;;16.87;61.57;95223.34;5133919;27;20038;-75
2023/08/13 03:10:37;;;;;;;3.55;2.90;;;;;;;17.01;60.96;95231.63;5134388;27;20050;-76
2023/08/13 03:13:02;;;;;;;4.55;3.13;;;;;;;17.05;61.01;95228.53;5133705;27;20386;-75
2023/08/13 03:15:28;;;;;;;3.28;2.85;;;;;;;17.05;61.11;95222.44;5116418;27;20519;-76
2023/08/13 03:17:53;;;;;;;3.90;2.80;;;;;;;17.07;60.78;95236.25;5133790;27;20039;-76
2023/08/13 03:20:19;;;;;;;3.70;2.72;;;;;;;17.05;61.09;95231.16;5133809;27;20504;-76
2023/08/13 03:22:44;;;;;;;3.50;2.50;;;;;;;17.10;61.45;95230.69;5135015;27;20027;-75
2023/08/13 03:25:10;;;;;;;3.50;2.85;;;;;;;17.09;62.11;95231.66;5134558;27;20031;-74
2023/08/13 03:27:35;;;;;;;4.57;2.92;;;;;;;17.10;61.25;95230.69;5134753;27;20080;-75
2023/08/13 03:30:01;;;;;;;4.15;2.70;;;;;;;17.08;62.77;95227.41;5133497;27;20508;-75
2023/08/13 03:32:27;;;;;;;2.92;2.60;;;;;;;17.04;62.49;95223.44;5134558;27;20032;-76
2023/08/13 03:34:53;;;;;;;3.35;2.78;;;;;;;16.93;62.49;95220.09;5133121;27;20019;-75
2023/08/13 03:37:18;;;;;;;3.85;3.30;;;;;;;16.82;63.62;95228.25;5133408;27;20057;-75
2023/08/13 03:39:44;;;;;;;3.88;2.78;;;;;;;16.97;63.78;95229.31;5133353;27;20023;-75
2023/08/13 03:42:09;;;;;;;3.75;2.75;;;;;;;16.90;63.27;95223.03;5133075;27;20416;-75
2023/08/13 03:44:34;;;;;;;5.65;3.13;;;;;;;16.77;63.83;95225.28;5134444;27;20023;-75
2023/08/13 03:47:00;;;;;;;3.63;2.80;;;;;;;16.81;63.60;95215.28;5115737;27;20023;-74
2023/08/13 03:49:25;;;;;;;3.92;2.70;;;;;;;16.71;62.63;95216.16;5115866;27;20023;-75
2023/08/13 03:51:51;;;;;;;3.20;2.80;;;;;;;16.67;63.21;95224.53;5134004;27;20048;-76
2023/08/13 03:54:17;;;;;;;3.08;2.70;;;;;;;16.63;62.45;95217.91;5134057;27;20058;-75
2023/08/13 03:56:42;;;;;;;4.82;3.10;;;;;;;16.57;62.80;95222.00;5132661;27;20023;-75
2023/08/13 03:59:08;;;;;;;3.55;3.03;;;;;;;16.42;63.22;95232.22;5098298;27;20023;-75
2023/08/13 04:01:33;;;;;;;3.60;3.05;;;;;;;16.29;63.62;95223.91;5132542;27;20412;-75
2023/08/13 04:03:58;;;;;;;3.40;2.78;;;;;;;16.32;64.21;95228.84;5132598;27;20408;-75
2023/08/13 04:06:24;;;;;;;4.80;3.00;;;;;;;16.18;64.79;95237.25;5133947;27;20053;-75
2023/08/13 04:08:49;;;;;;;3.63;2.80;;;;;;;16.17;64.30;95223.34;5133667;27;20030;-75
2023/08/13 04:11:15;;;;;;;3.47;3.08;;;;;;;16.14;64.60;95235.94;5133646;27;20023;-75
2023/08/13 04:13:40;;;;;;;3.50;3.20;;;;;;;16.13;64.26;95232.50;5134123;27;20031;-75
2023/08/13 04:16:06;;;;;;;3.58;2.95;;;;;;;16.20;64.34;95248.44;5132413;27;20484;-75
2023/08/13 04:18:31;;;;;;;4.65;3.30;;;;;;;16.27;64.91;95249.47;5132521;27;20038;-75
2023/08/13 04:20:56;;;;;;;3.67;3.10;;;;;;;16.24;64.77;95252.38;5115153;27;20031;-75
2023/08/13 04:23:22;;;;;;;4.35;3.35;;;;;;;16.20;65.33;95256.28;5131168;27;20035;-75
2023/08/13 04:25:47;;;;;;;4.75;3.65;;;;;;;16.43;65.11;95260.06;5114971;27;20027;-75
2023/08/13 04:28:13;;;;;;;5.47;3.53;;;;;;;16.43;64.82;95252.19;5132221;27;20031;-75
2023/08/13 04:30:39;;;;;;;3.47;3.03;;;;;;;16.63;63.89;95260.72;5097905;27;20035;-75
2023/08/13 04:33:04;;;;;;;4.75;3.15;;;;;;;16.58;63.87;95249.88;5114697;27;20514;-74
2023/08/13 04:35:30;;;;;;;4.03;3.30;;;;;;;16.56;64.13;95245.75;5133145;27;20102;-75
2023/08/13 04:37:55;;;;;;;3.30;3.00;;;;;;;17.02;64.11;95254.25;5131700;27;20080;-75
2023/08/13 04:40:21;;;;;;;4.10;3.22;;;;;;;17.21;64.05;95275.03;5114665;27;20076;-75
2023/08/13 04:42:46;;;;;;;4.18;3.20;;;;;;;17.43;63.13;95276.28;5131728;27;20496;-75
2023/08/13 04:45:15;;;;;;;3.38;3.08;;;;;;;17.70;62.09;95269.16;5114538;27;20031;-75
2023/08/13 04:47:41;;;;;;;3.85;3.28;;;;;;;17.82;62.17;95263.47;5131534;27;20400;-75
2023/08/13 04:50:07;;;;;;;3.42;2.78;;;;;;;18.11;61.80;95277.16;5097375;27;20034;-75
2023/08/13 04:52:32;;;;;;;5.07;3.13;;;;;;;18.77;60.04;95267.50;5131547;27;20496;-75
2023/08/13 04:54:57;;;;;;;4.43;3.03;;;;;;;19.49;57.76;95270.94;5131799;27;20023;-78
2023/08/13 04:57:23;;;;;;;5.40;3.17;;;;;;;20.20;56.31;95260.41;5131958;27;20031;-77
2023/08/13 04:59:48;;;;;;;3.22;2.72;;;;;;;20.96;53.77;95261.25;5132858;27;20031;-77
2023/08/13 05:02:14;;;;;;;7.20;3.00;;;;;;;21.68;52.04;95267.78;5133103;27;20036;-77
2023/08/13 05:04:39;;;;;;;3.88;3.00;;;;;;;22.19;50.98;95268.56;5114589;27;20079;-78
2023/08/13 05:07:04;;;;;;;4.18;2.83;;;;;;;22.54;48.65;95276.66;5132868;27;20027;-77
2023/08/13 05:09:31;;;;;;;4.05;3.20;;;;;;;22.57;46.91;95275.47;5131521;27;20473;-78
2023/08/13 05:11:56;;;;;;;4.38;2.97;;;;;;;22.45;48.30;95268.00;5131600;27;20038;-77
2023/08/13 05:14:22;;;;;;;3.47;3.00;;;;;;;22.35;49.37;95267.50;5131675;27;20035;-76
2023/08/13 05:16:47;;;;;;;3.88;2.65;;;;;;;22.44;49.40;95270.84;5131683;27;20631;-77
2023/08/13 05:19:13;;;;;;;3.15;2.60;;;;;;;22.38;50.10;95261.84;5114117;27;20038;-77
2023/08/13 05:21:38;;;;;;;5.15;2.80;;;;;;;22.61;48.80;95266.94;5131441;27;20450;-77
2023/08/13 05:24:04;;;;;;;3.15;2.65;;;;;;;22.75;48.47;95273.16;5132563;27;20031;-77
2023/08/13 05:26:29;;;;;;;3.67;2.92;;;;;;;22.77;46.50;95260.56;5097090;27;20420;-76
2023/08/13 05:28:55;;;;;;;4.82;2.70;;;;;;;22.77;45.78;95265.03;5131477;27;20080;-77
2023/08/13 05:31:20;;;;;;;4.65;2.80;;;;;;;22.62;45.58;95263.28;5131354;27;20087;-77
2023/08/13 05:33:46;;;;;;;3.58;2.75;;;;;;;22.62;46.23;95271.22;5131254;27;20511;-77
2023/08/13 05:36:11;;;;;;;4.30;2.83;;;;;;;22.72;46.96;95266.41;5131054;27;20028;-77
2023/08/13 05:38:36;;;;;;;4.57;2.97;;;;;;;22.54;46.43;95260.78;5131564;27;20408;-77
2023/08/13 05:41:02;;;;;;;4.72;3.20;;;;;;;22.41;46.82;95247.41;5131266;27;20041;-77
2023/08/13 05:43:27;;;;;;;5.18;3.30;;;;;;;22.48;46.68;95272.09;5131281;27;20381;-78
2023/08/13 05:45:53;;;;;;;5.35;3.03;;;;;;;22.35;46.16;95277.28;5130954;27;20476;-77
2023/08/13 05:48:18;;;;;;;4.35;3.05;;;;;;;22.53;45.89;95277.66;5132715;27;20034;-78
2023/08/13 05:50:43;;;;;;;4.68;3.30;;;;;;;22.86;45.49;95277.94;5132370;27;20027;-77
2023/08/13 05:53:09;;;;;;;6.05;3.20;;;;;;;22.75;45.64;95260.72;5131113;28;20425;-78
2023/08/13 05:55:35;;;;;;;4.28;3.38;;;;;;;23.03;45.81;95278.50;5131018;28;20039;-76
2023/08/13 05:58:01;;;;;;;4.20;3.17;;;;;;;22.84;45.44;95274.66;5097056;28;20038;-78
2023/08/13 06:00:27;;;;;;;5.78;4.25;;;;;;;22.96;45.36;95272.34;5131197;28;20458;-77
2023/08/13 06:02:52;;;;;;;3.72;3.08;;;;;;;23.01;44.93;95272.56;5131071;28;20419;-78
2023/08/13 06:05:18;;;;;;;6.22;3.60;;;;;;;23.03;44.33;95270.53;5132006;27;20031;-78
2023/08/13 06:07:43;;;;;;;5.00;3.53;;;;;;;22.64;45.12;95268.38;5113897;28;20033;-78
2023/08/13 06:10:08;;;;;;;3.72;3.20;;;;;;;22.55;45.59;95275.63;5130877;28;20466;-78
2023/08/13 06:12:34;;;;;;;6.60;3.38;;;;;;;22.74;44.76;95275.00;5131017;28;20031;-77
2023/08/13 06:14:59;;;;;;;6.05;3.58;;;;;;;22.82;44.95;95267.94;5130589;27;20096;-78
2023/08/13 06:17:25;;;;;;;5.28;3.30;;;;;;;22.90;43.82;95259.81;5132043;27;20476;-78
2023/08/13 06:19:50;;;;;;;5.60;3.33;;;;;;;22.83;44.62;95272.22;5113685;28;20038;-77
2023/08/13 06:22:16;;;;;;;3.83;2.90;;;;;;;22.71;45.40;95264.78;5096585;28;20542;-78
2023/08/13 06:24:41;;;;;;;5.65;3.17;;;;;;;22.83;45.27;95262.44;5113321;28;20553;-78
2023/08/13 06:27:07;;;;;;;6.93;3.53;;;;;;;22.79;45.37;95273.59;5130579;28;20050;-78
2023/08/13 06:29:32;;;;;;;5.50;2.97;;;;;;;22.92;44.98;95274.50;5132016;27;20027;-78
2023/08/13 06:31:58;;;;;;;4.60;3.17;;;;;;;22.80;44.86;95269.94;5113390;28;20020;-77
2023/08/13 06:34:23;;;;;;;5.20;3.42;;;;;;;22.61;44.66;95266.13;5130431;28;20084;-78
2023/08/13 06:36:48;;;;;;;4.47;3.22;;;;;;;22.52;44.54;95270.72;5113455;28;20023;-78
2023/08/13 06:39:14;;;;;;;5.68;3.38;;;;;;;22.52;44.07;95273.38;5130489;28;20046;-78
2023/08/13 06:41:39;;;;;;;6.40;3.33;;;;;;;22.57;43.73;95264.88;5130322;28;20488;-77
2023/08/13 06:44:05;;;;;;;6.20;3.13;;;;;;;23.11;43.21;95264.28;5131485;27;20039;-78
2023/08/13 06:46:30;;;;;;;4.68;3.15;;;;;;;23.32;42.86;95268.72;5114772;27;20088;-77
2023/08/13 06:48:56;;;;;;;4.25;3.15;;;;;;;23.79;42.04;95275.06;5117238;27;20032;-77
2023/08/13 06:51:21;;;;;;;6.60;3.30;;;;;;;23.55;41.50;95258.63;5134149;27;20042;-78
2023/08/13 06:53:47;;;;;;;5.88;3.20;;;;;;;23.59;41.70;95274.97;5134027;27;20047;-77
2023/08/13 06:56:12;;;;;;;5.35;2.95;;;;;;;23.73;41.12;95270.56;5135475;27;20031;-78
2023/08/13 06:58:37;;;;;;;4.68;2.95;;;;;;;23.98;40.83;95268.22;5134083;27;20032;-78
2023/08/13 07:01:03;;;;;;;3.92;3.03;;;;;;;24.19;40.92;95273.38;5116617;27;20058;-78
2023/08/13 07:03:28;;;;;;;5.22;3.35;;;;;;;24.07;41.02;95278.47;5099628;27;20030;-78
2023/08/13 07:05:54;;;;;;;5.97;3.15;;;;;;;24.34;40.41;95267.09;5133864;27;20043;-78
2023/08/13 07:08:19;;;;;;;3.97;2.92;;;;;;;24.48;40.22;95258.16;5099840;27;20031;-78
2023/08/13 07:10:45;;;;;;;6.40;3.30;;;;;;;24.25;39.80;95242.56;5133654;27;20039;-78
2023/08/13 07:13:10;;;;;;;4.18;3.40;;;;;;;24.15;40.30;95250.91;5116701;27;20392;-78
2023/08/13 07:15:36;;;;;;;4.93;3.35;;;;;;;24.03;40.82;95255.16;5133736;27;20039;-78
2023/08/13 07:18:01;;;;;;;4.45;3.20;;;;;;;23.71;41.12;95265.47;5116227;27;20027;-78
2023/08/13 07:20:27;;;;;;;5.55;2.90;;;;;;;23.59;41.05;95251.91;5133522;27;20024;-78
2023/08/13 07:22:52;;;;;;;4.70;3.30;;;;;;;24.05;40.04;95259.25;5133589;27;20023;-78
2023/08/13 07:25:17;;;;;;;6.55;3.75;;;;;;;23.82;40.68;95258.75;5116430;27;20039;-78
2023/08/13 07:27:44;;;;;;;4.75;3.35;;;;;;;24.12;40.60;95263.75;5116386;27;20023;-77
2023/08/13 07:30:10;;;;;;;4.15;3.40;;;;;;;24.58;39.66;95255.09;5116123;27;20507;-78
2023/08/13 07:32:36;;;;;;;3.47;3.17;;;;;;;24.75;38.97;95253.69;5116251;27;20396;-77
2023/08/13 07:35:01;;;;;;;5.80;3.15;;;;;;;25.10;37.98;95258.75;5133343;27;20031;-78
2023/08/13 07:37:27;;;;;;;5.55;3.10;;;;;;;24.93;38.83;95261.88;5133245;27;20027;-77
2023/08/13 07:39:52;;;;;;;4.93;3.33;;;;;;;25.11;38.40;95247.94;5133008;27;20035;-76
2023/08/13 07:42:18;;;;;;;6.55;3.10;;;;;;;24.92;38.55;95254.91;5133375;27;20034;-77
2023/08/13 07:44:43;;;;;;;3.97;3.20;;;;;;;24.74;38.69;95249.41;5115997;27;20042;-78
2023/08/13 07:47:09;;;;;;;4.60;3.13;;;;;;;25.05;38.13;95247.94;5133058;27;20034;-78
2023/08/13 07:49:34;;;;;;;9.98;3.03;;;;;;;24.91;38.05;95253.28;5134229;27;20491;-77
2023/08/13 07:52:00;;;;;;;3.92;2.85;;;;;;;24.93;38.41;95229.13;5132880;27;20023;-78
2023/08/13 07:54:26;;;;;;;3.80;2.90;;;;;;;24.79;38.25;95238.94;5132820;27;20107;-78
2023/08/13 07:56:52;;;;;;;5.07;3.30;;;;;;;24.72;38.58;95246.94;5132685;27;20090;-77
2023/08/13 07:59:18;;;;;;;4.22;3.10;;;;;;;24.79;38.31;95238.13;5132574;27;20019;-77
2023/08/13 08:01:43;;;;;;;4.90;2.60;;;;;;;24.89;38.49;95244.69;5115851;27;20019;-78
2023/08/13 08:04:09;;;;;;;4.25;2.72;;;;;;;25.09;38.90;95238.53;5115457;27;20090;-77
2023/08/13 08:06:34;;;;;;;4.97;3.00;;;;;;;25.13;37.78;95221.13;5133804;27;20026;-78
2023/08/13 08:09:00;;;;;;;4.22;2.55;;;;;;;24.98;36.84;95219.53;5115252;27;20068;-78
2023/08/13 08:11:25;;;;;;;3.42;2.70;;;;;;;25.05;37.20;95218.72;5098471;27;20484;-78
2023/08/13 08:13:51;;;;;;;4.22;2.72;;;;;;;25.18;36.89;95229.34;5098622;27;20091;-78
2023/08/13 08:16:16;;;;;;;4.43;2.63;;;;;;;25.62;37.42;95231.25;5115234;27;20042;-78
2023/08/13 08:18:41;;;;;;;4.63;2.78;;;;;;;25.76;37.08;95210.72;5132625;27;20019;-78
2023/08/13 08:21:07;;;;;;;4.07;3.10;;;;;;;25.69;36.29;95217.94;5133924;27;20031;-78
2023/08/13 08:23:35;;;;;;;4.80;2.72;;;;;;;25.64;36.10;95217.75;5115430;27;20027;-78
2023/08/13 08:26:00;;;;;;;3.58;2.92;;;;;;;25.64;36.50;95204.47;5133575;27;20497;-78
2023/08/13 08:28:26;;;;;;;6.03;2.60;;;;;;;25.77;36.11;95199.09;5132530;27;20023;-78
2023/08/13 08:30:52;;;;;;;4.90;3.05;;;;;;;25.67;36.31;95198.72;5133612;27;20031;-78
2023/08/13 08:33:17;;;;;;;3.42;2.60;;;;;;;25.76;35.79;95192.13;5132246;27;20031;-77
2023/08/13 08:35:42;;;;;;;6.00;2.90;;;;;;;25.69;35.90;95196.66;5132245;27;20031;-78
2023/08/13 08:38:08;;;;;;;4.57;3.00;;;;;;;25.46;36.40;95204.31;5133585;27;20031;-78
2023/08/13 08:40:33;;;;;;;7.47;3.13;;;;;;;25.45;35.80;95178.75;5132501;27;20042;-78
2023/08/13 08:42:59;;;;;;;6.45;3.00;;;;;;;25.81;35.71;95179.00;5131998;27;20096;-77
2023/08/13 08:45:24;;;;;;;3.45;2.70;;;;;;;26.03;35.22;95189.34;5114619;27;20042;-77
2023/08/13 08:47:50;;;;;;;5.90;2.70;;;;;;;25.85;34.58;95185.56;5114925;27;20428;-77
2023/08/13 08:50:16;;;;;;;4.63;2.70;;;;;;;26.00;34.86;95189.78;5114837;27;20038;-77
2023/08/13 08:52:41;;;;;;;3.67;2.55;;;;;;;26.15;32.80;95190.28;5097630;27;20054;-77
2023/08/13 08:55:09;;;;;;;3.53;2.40;;;;;;;26.38;33.56;95176.41;5114714;27;20030;-78
2023/08/13 08:57:34;;;;;;;3.88;2.63;;;;;;;26.06;33.79;95170.28;5114577;27;20035;-77
2023/08/13 09:00:00;;;;;;;3.90;2.25;;;;;;;25.79;33.19;95183.69;5114581;27;20035;-75
2023/08/13 09:02:25;;;;;;;4.18;2.75;;;;;;;25.97;34.00;95177.72;5131671;27;20035;-78
2023/08/13 09:04:51;;;;;;;5.82;3.00;;;;;;;26.12;34.16;95182.72;5131531;27;20581;-77
2023/08/13 09:07:16;;;;;;;3.47;2.72;;;;;;;25.97;34.35;95182.22;5114200;27;20035;-77
2023/08/13 09:09:44;;;;;;;6.22;2.67;;;;;;;25.95;34.55;95186.94;5130953;27;20031;-78
2023/08/13 09:12:09;;;;;;;4.70;2.70;;;;;;;25.79;34.92;95169.59;5131341;27;20107;-77
2023/08/13 09:14:35;;;;;;;5.18;2.85;;;;;;;26.01;33.56;95178.09;5131305;27;20039;-78
2023/08/13 09:17:00;;;;;;;4.10;2.85;;;;;;;25.92;34.37;95166.09;5097138;27;20397;-77
2023/08/13 09:19:26;;;;;;;3.78;2.63;;;;;;;26.02;34.47;95158.44;5114247;27;20038;-77
2023/08/13 09:21:53;;;;;;;4.32;2.80;;;;;;;26.03;34.44;95162.75;5131524;27;20070;-76
2023/08/13 09:24:19;;;;;;;3.35;2.60;;;;;;;26.21;33.55;95165.47;5131090;27;20519;-76
2023/08/13 09:26:45;;;;;;;2.63;2.42;;;;;;;26.43;33.83;95170.44;5131115;27;20027;-77
2023/08/13 09:29:10;;;;;;;3.30;2.58;;;;;;;26.43;33.55;95165.09;5114054;27;20042;-78
2023/08/13 09:31:36;;;;;;;4.38;2.60;;;;;;;26.37;33.51;95160.66;5114197;27;20538;-77
2023/08/13 09:34:01;;;;;;;3.97;2.45;;;;;;;26.52;33.21;95150.50;5132188;27;20520;-77
2023/08/13 09:36:30;;;;;;;3.50;2.85;;;;;;;26.59;33.19;95155.78;5131278;27;20085;-78
2023/08/13 09:38:56;;;;;;;3.55;2.63;;;;;;;26.45;32.80;95169.19;5114169;27;20031;-77
2023/08/13 09:41:21;;;;;;;6.55;2.85;;;;;;;26.46;33.68;95162.00;5113973;27;20027;-77
2023/08/13 09:43:49;;;;;;;4.90;2.60;;;;;;;26.45;33.81;95152.41;5131098;27;20031;-78
2023/08/13 09:46:20;;;;;;;5.40;3.10;;;;;;;26.68;33.34;95149.94;5114731;28;20038;-78
2023/08/13 09:48:46;;;;;;;3.22;2.67;;;;;;;26.90;33.59;95163.69;5097017;28;20031;-78
2023/08/13 09:51:11;;;;;;;3.67;2.60;;;;;;;26.58;32.97;95173.63;5096871;28;20081;-77
2023/08/13 09:53:37;;;;;;;3.55;2.53;;;;;;;26.57;32.39;95163.19;5113650;28;20051;-78
2023/08/13 09:56:02;;;;;;;5.68;2.55;;;;;;;26.61;32.25;95151.88;5113823;28;20080;-77
2023/08/13 09:58:28;;;;;;;3.08;2.55;;;;;;;26.58;32.71;95144.31;5096881;28;20412;-78
2023/08/13 10:00:54;;;;;;;3.65;2.80;;;;;;;26.56;33.34;95159.69;5131319;28;20104;-77
2023/08/13 10:03:19;;;;;;;4.18;2.88;;;;;;;26.49;32.29;95153.56;5113535;28;20520;-77
2023/08/13 10:05:45;;;;;;;6.90;2.60;;;;;;;26.37;31.87;95150.81;5113967;28;20035;-77
2023/08/13 10:08:11;;;;;;;4.70;2.72;;;;;;;26.37;32.53;95155.31;5130909;28;20035;-77
2023/08/13 10:10:40;;;;;;;3.80;3.33;;;;;;;26.05;32.59;95164.16;5130900;28;20393;-78
2023/08/13 10:13:06;;;;;;;3.80;2.70;;;;;;;26.03;32.61;95149.44;5113786;28;20035;-77
2023/08/13 10:15:32;;;;;;;4.85;3.03;;;;;;;25.99;33.00;95153.53;5130742;28;20047;-78
2023/08/13 10:17:58;;;;;;;4.30;3.00;;;;;;;25.84;32.51;95133.38;5113768;28;20069;-77
2023/08/13 10:20:25;;;;;;;4.70;3.05;;;;;;;26.00;33.88;95141.88;5115044;27;20564;-77
2023/08/13 10:22:50;;;;;;;5.28;3.00;;;;;;;26.26;33.96;95127.56;5134729;27;20031;-77
2023/08/13 10:25:29;;;;;;;3.92;2.95;;;;;;;26.14;34.27;95139.94;5100542;27;20091;-77
2023/08/13 10:27:54;;;;;;;3.53;2.90;;;;;;;26.05;34.17;95144.72;5134954;27;20114;-78
2023/08/13 10:30:20;;;;;;;11.00;2.90;;;;;;;26.01;34.24;95156.81;5117889;27;20058;-77
2023/08/13 10:32:53;;;;;;;5.97;3.03;;;;;;;25.87;34.55;95160.59;5134903;27;20458;-77
2023/08/13 10:35:19;;;;;;;5.15;3.10;;;;;;;25.74;34.45;95135.66;5120425;27;20023;-79
2023/08/13 10:37:48;;;;;;;3.45;2.70;;;;;;;25.83;34.84;95142.38;5125496;27;20110;-79
2023/08/13 10:40:15;;;;;;;3.08;2.72;;;;;;;25.89;34.84;95147.88;5134499;27;20175;-80
2023/08/13 10:42:46;;;;;;;3.75;2.97;;;;;;;25.69;34.17;95154.09;5134363;27;20488;-80
2023/08/13 10:45:12;;;;;;;3.28;2.90;;;;;;;25.79;34.94;95148.31;5116993;27;20427;-79
2023/08/13 10:47:38;;;;;;;4.93;3.13;;;;;;;25.74;35.56;95143.66;5134175;27;20031;-79
2023/08/13 10:50:13;;;;;;;3.35;3.05;;;;;;;25.89;34.95;95151.34;5134220;27;20039;-79
2023/08/13 10:52:38;;;;;;;5.63;3.08;;;;;;;25.80;35.31;95145.44;5117715;27;20527;-79
2023/08/13 10:55:04;;;;;;;4.97;2.90;;;;;;;25.91;34.93;95145.81;5102174;28;20032;-79
2023/08/13 10:57:30;;;;;;;4.95;3.08;;;;;;;25.92;34.80;95131.50;5107527;28;20115;-79
2023/08/13 10:59:56;;;;;;;3.80;2.83;;;;;;;25.73;34.40;95143.84;5111800;28;20405;-79
2023/08/13 11:02:21;;;;;;;3.67;2.90;;;;;;;25.95;34.57;95137.19;5128599;27;20107;-79
2023/08/13 11:04:47;;;;;;;3.25;2.83;;;;;;;26.08;35.26;95134.44;5097910;27;20065;-79
2023/08/13 11:07:15;;;;;;;5.15;3.22;;;;;;;26.25;35.14;95125.94;5120127;27;20071;-79
2023/08/13 11:09:44;;;;;;;5.22;3.10;;;;;;;26.38;34.03;95140.97;5113587;28;20027;-80
2023/08/13 11:12:10;;;;;;;3.47;2.90;;;;;;;26.29;33.49;95141.22;5113054;28;20038;-79
2023/08/13 11:14:36;;;;;;;3.67;3.28;;;;;;;26.34;33.72;95129.13;5113475;28;20058;-79
2023/08/13 11:17:01;;;;;;;4.15;3.22;;;;;;;26.32;34.09;95132.00;5112930;28;20084;-79
2023/08/13 11:19:27;;;;;;;6.15;3.80;;;;;;;26.16;35.57;95133.38;5096326;28;20122;-80
2023/08/13 11:21:54;;;;;;;4.10;3.60;;;;;;;26.07;36.01;95137.31;5095849;28;20032;-83
2023/08/13 11:24:20;;;;;;;5.93;3.10;;;;;;;25.99;36.44;95129.59;5079658;28;20031;-83
2023/08/13 11:26:46;;;;;;;3.85;3.20;;;;;;;25.85;36.27;95132.34;5095978;28;20026;-85
2023/08/13 11:29:11;;;;;;;4.28;3.10;;;;;;;25.87;36.24;95126.81;5114303;28;20055;-85